Latest Weather Observations for Cape Ferguson

IDQ60801

Issued at 4:13 pm EST Thursday 28 January 2021 (issued every 10 minutes, with the page automatically refreshed every 10 minutes)

About weather observations | Map of weather stations | Latest weather observations for QLD | Other Formats
Station Details ID: 032182 Name: CAPE FERGUSON NTC AWS Lat: -19.28 Lon: 147.06 Height: 0.0 m
Data from the previous 72 hours. | See also: Recent months for locations in Queensland
Date/Time
EST
Temp
°C
App
Temp
°C
Dew
Point
°C
Rel
Hum
%
Delta-T
°C
Wind Press
QNH
hPa
Press
MSL
hPa
Rain since
9am
mm
Dir  Spd
km/h
Gust
km/h
Spd
kts
Gust
kts
28/04:00pm 28.3 - - - - ENE 26 30 14 16 1004.1 1004.1 -
28/03:30pm 28.6 - - - - ENE 26 30 14 16 1004.3 1004.3 -
28/03:00pm 28.6 - - - - ENE 24 28 13 15 1004.5 1004.5 -
28/02:30pm 28.3 - - - - E 26 30 14 16 1004.9 1004.9 -
28/02:00pm 28.2 - - - - E 30 33 16 18 1005.3 1005.3 -
28/01:30pm 28.2 - - - - E 28 35 15 19 1005.5 1005.5 -
28/01:00pm 28.3 - - - - E 30 35 16 19 1005.6 1005.6 -
28/12:30pm 28.0 - - - - E 28 32 15 17 1006.0 1006.0 -
28/12:00pm 28.1 - - - - E 26 30 14 16 1006.2 1006.2 -
28/11:30am 28.1 - - - - E 24 28 13 15 1006.5 1006.5 -
28/11:00am 28.1 - - - - E 22 28 12 15 1006.6 1006.6 -
28/10:30am 28.0 - - - - ESE 22 26 12 14 1006.7 1006.7 -
28/10:00am 27.7 - - - - ESE 20 24 11 13 1006.7 1006.7 -
28/09:30am 27.4 - - - - SE 20 26 11 14 1006.7 1006.7 -
28/09:00am 27.1 - - - - SSE 20 28 11 15 1006.6 1006.6 -
28/08:30am 26.6 - - - - SSE 19 24 10 13 1006.5 1006.5 -
28/08:00am 26.1 - - - - SSE 20 24 11 13 1006.3 1006.3 -
28/07:30am 25.8 - - - - SSE 20 24 11 13 1006.2 1006.2 -
28/07:00am 25.8 - - - - SSE 17 22 9 12 1006.0 1006.0 -
28/06:30am 26.2 - - - - SSE 17 20 9 11 1005.9 1005.9 -
28/06:00am 25.7 - - - - SSE 17 20 9 11 1005.5 1005.5 -
28/05:30am 26.3 - - - - SSE 19 22 10 12 1005.0 1005.0 -
28/05:00am 26.3 - - - - SSE 22 28 12 15 1004.7 1004.7 -
28/04:30am 26.7 - - - - SE 22 30 12 16 1004.8 1004.8 -
28/04:00am 27.7 - - - - E 22 26 12 14 1004.6 1004.6 -
28/03:30am 27.7 - - - - E 19 24 10 13 1004.5 1004.5 -
28/03:00am 27.6 - - - - E 19 22 10 12 1004.6 1004.6 -
28/02:30am 27.6 - - - - E 17 20 9 11 1004.6 1004.6 -
28/02:00am 27.6 - - - - E 19 24 10 13 1004.8 1004.8 -
28/01:30am 27.5 - - - - E 20 24 11 13 1005.2 1005.2 -
28/01:00am 27.7 - - - - E 19 22 10 12 1005.4 1005.4 -
28/12:30am 27.9 - - - - E 19 20 10 11 1005.7 1005.7 -
28/12:00am 27.9 - - - - E 19 22 10 12 1005.9 1005.9 -
 
Date/Time
EST
Temp
°C
App
Temp
°C
Dew
Point
°C
Rel
Hum
%
Delta-T
°C
Wind Press
QNH
hPa
Press
MSL
hPa
Rain since
9am
mm
Dir  Spd
km/h
Gust
km/h
Spd
kts
Gust
kts
27/11:30pm 27.8 - - - - E 19 22 10 12 1006.1 1006.1 -
27/11:00pm 28.1 - - - - E 19 22 10 12 1006.3 1006.3 -
27/10:30pm 27.9 - - - - E 19 20 10 11 1006.4 1006.4 -
27/10:00pm 28.0 - - - - ENE 19 22 10 12 1006.5 1006.5 -
27/09:30pm 28.0 - - - - E 19 22 10 12 1006.5 1006.5 -
27/09:00pm 28.1 - - - - ENE 20 24 11 13 1006.2 1006.2 -
27/08:30pm 28.1 - - - - ENE 17 20 9 11 1006.0 1006.0 -
27/08:00pm 28.1 - - - - ENE 19 22 10 12 1005.9 1005.9 -
27/07:30pm 28.1 - - - - ENE 17 20 9 11 1005.8 1005.8 -
27/07:00pm 28.1 - - - - ENE 17 19 9 10 1005.6 1005.6 -
27/06:30pm 28.2 - - - - ENE 17 20 9 11 1005.3 1005.3 -
27/06:00pm 28.2 - - - - ENE 17 20 9 11 1005.1 1005.1 -
27/05:30pm 28.2 - - - - ENE 19 22 10 12 1004.7 1004.7 -
27/05:00pm 28.4 - - - - ENE 19 22 10 12 1004.4 1004.4 -
27/04:30pm 28.3 - - - - ENE 19 24 10 13 1004.2 1004.2 -
27/04:00pm 28.3 - - - - ENE 20 24 11 13 1004.3 1004.3 -
27/03:30pm 28.1 - - - - ENE 22 26 12 14 1004.2 1004.2 -
27/03:00pm 28.2 - - - - E 22 26 12 14 1004.3 1004.3 -
27/02:30pm 28.3 - - - - E 24 28 13 15 1004.3 1004.3 -
27/02:00pm 28.3 - - - - ENE 22 26 12 14 1004.6 1004.6 -
27/01:30pm 28.4 - - - - ENE 20 24 11 13 1004.9 1004.9 -
27/01:00pm 28.4 - - - - ENE 19 20 10 11 1005.3 1005.3 -
27/12:30pm 28.2 - - - - E 17 20 9 11 1005.6 1005.6 -
27/12:00pm 28.1 - - - - E 19 20 10 11 1005.8 1005.8 -
27/11:30am 28.1 - - - - E 19 22 10 12 1006.0 1006.0 -
27/11:00am 28.1 - - - - E 13 17 7 9 1006.1 1006.1 -
27/10:30am 27.9 - - - - ESE 11 15 6 8 1006.2 1006.2 -
27/10:00am 27.8 - - - - ESE 9 13 5 7 1006.2 1006.2 -
27/09:30am 27.4 - - - - SE 11 17 6 9 1006.2 1006.2 -
27/09:00am 27.1 - - - - SE 15 19 8 10 1006.2 1006.2 -
27/08:30am 27.1 - - - - SE 11 15 6 8 1006.0 1006.0 -
27/08:00am 26.8 - - - - SSE 15 19 8 10 1005.9 1005.9 -
27/07:30am 26.6 - - - - SSE 17 20 9 11 1005.7 1005.7 -
27/07:00am 26.7 - - - - SE 19 22 10 12 1005.3 1005.3 -
27/06:30am 27.0 - - - - SE 15 19 8 10 1004.9 1004.9 -
27/06:00am 26.9 - - - - SE 11 15 6 8 1004.8 1004.8 -
27/05:30am 27.1 - - - - SE 11 13 6 7 1004.4 1004.4 -
27/05:00am 27.4 - - - - ESE 11 15 6 8 1004.1 1004.1 -
27/04:30am 27.5 - - - - E 9 13 5 7 1004.0 1004.0 -
27/04:00am 27.3 - - - - E 13 15 7 8 1003.9 1003.9 -
27/03:30am 27.4 - - - - E 13 17 7 9 1004.0 1004.0 -
27/03:00am 27.5 - - - - ENE 13 19 7 10 1004.1 1004.1 -
27/02:30am 27.4 - - - - ENE 11 15 6 8 1004.2 1004.2 -
27/02:00am 27.5 - - - - ENE 11 15 6 8 1004.4 1004.4 -
27/01:30am 27.5 - - - - ENE 11 13 6 7 1004.7 1004.7 -
27/01:00am 27.6 - - - - E 13 17 7 9 1005.1 1005.1 -
27/12:30am 27.5 - - - - E 13 17 7 9 1005.3 1005.3 -
27/12:00am 27.8 - - - - ENE 11 15 6 8 1005.7 1005.7 -
 
Date/Time
EST
Temp
°C
App
Temp
°C
Dew
Point
°C
Rel
Hum
%
Delta-T
°C
Wind Press
QNH
hPa
Press
MSL
hPa
Rain since
9am
mm
Dir  Spd
km/h
Gust
km/h
Spd
kts
Gust
kts
26/11:30pm 27.8 - - - - ENE 9 13 5 7 1005.8 1005.8 -
26/11:00pm 27.9 - - - - ENE 11 13 6 7 1006.1 1006.1 -
26/10:30pm 27.9 - - - - ENE 11 15 6 8 1006.2 1006.2 -
26/10:00pm 28.0 - - - - ENE 13 17 7 9 1006.2 1006.2 -
26/09:30pm 28.1 - - - - ENE 11 17 6 9 1006.1 1006.1 -
26/09:00pm 28.0 - - - - ENE 11 17 6 9 1005.8 1005.8 -
26/08:30pm 28.1 - - - - ENE 13 19 7 10 1005.4 1005.4 -
26/08:00pm 28.0 - - - - ENE 15 20 8 11 1005.0 1005.0 -
26/07:30pm 28.1 - - - - ENE 13 19 7 10 1004.7 1004.7 -
26/07:00pm 28.0 - - - - ENE 15 19 8 10 1004.4 1004.4 -
26/06:30pm 28.1 - - - - ENE 13 20 7 11 1003.8 1003.8 -
26/06:00pm 28.1 - - - - ENE 15 20 8 11 1003.3 1003.3 -
26/05:30pm 28.1 - - - - ENE 11 19 6 10 1003.0 1003.0 -
26/05:00pm 28.2 - - - - ENE 13 19 7 10 1002.9 1002.9 -
26/04:30pm 28.2 - - - - ENE 13 20 7 11 1002.8 1002.8 -
26/04:00pm 28.1 - - - - ENE 13 17 7 9 1003.0 1003.0 -
26/03:30pm 28.2 - - - - ENE 13 17 7 9 1003.3 1003.3 -
26/03:00pm 28.2 - - - - ENE 13 20 7 11 1003.7 1003.7 -
26/02:30pm 27.7 - - - - ENE 15 20 8 11 1004.0 1004.0 -
26/02:00pm 27.8 - - - - ENE 17 22 9 12 1004.3 1004.3 -
26/01:30pm 27.8 - - - - ENE 15 22 8 12 1004.7 1004.7 -
26/01:00pm 27.9 - - - - ENE 11 17 6 9 1005.1 1005.1 -
26/12:30pm 27.5 - - - - ENE 17 20 9 11 1005.5 1005.5 -
26/12:00pm 27.6 - - - - ENE 15 19 8 10 1005.7 1005.7 -
26/11:30am 27.4 - - - - ENE 15 19 8 10 1006.0 1006.0 -
26/11:00am 27.4 - - - - ENE 11 17 6 9 1006.3 1006.3 -
26/10:30am 27.3 - - - - E 13 17 7 9 1006.4 1006.4 -
26/10:00am 27.5 - - - - E 9 13 5 7 1006.4 1006.4 -
26/09:30am 27.1 - - - - ESE 9 13 5 7 1006.4 1006.4 -
26/09:00am 26.9 - - - - ESE 11 15 6 8 1006.5 1006.5 -
26/08:30am 26.6 - - - - ESE 11 13 6 7 1006.3 1006.3 -
26/08:00am 26.3 - - - - SE 13 15 7 8 1006.3 1006.3 -
26/07:30am 26.2 - - - - SE 11 15 6 8 1006.1 1006.1 -
26/07:00am 26.1 - - - - WSW 4 9 2 5 1005.9 1005.9 -
26/06:30am 25.8 - - - - W 7 9 4 5 1005.6 1005.6 -
26/06:00am 25.7 - - - - WNW 6 9 3 5 1005.1 1005.1 -
26/05:30am 25.5 - - - - NW 6 7 3 4 1004.7 1004.7 -
26/05:00am 24.8 - - - - NW 6 7 3 4 1004.4 1004.4 -
26/04:30am 25.1 - - - - NW 4 6 2 3 1004.2 1004.2 -
26/04:00am 25.8 - - - - SW 4 6 2 3 1004.1 1004.1 -
26/03:30am 26.9 - - - - ENE 6 9 3 5 1004.4 1004.4 -
26/03:00am 26.9 - - - - ENE 6 9 3 5 1004.5 1004.5 -
26/02:30am 27.1 - - - - ENE 7 11 4 6 1004.8 1004.8 -
26/02:00am 27.0 - - - - ENE 4 9 2 5 1005.1 1005.1 -
26/01:30am 27.0 - - - - NE 2 7 1 4 1005.7 1005.7 -
26/01:00am 26.9 - - - - NNW 2 6 1 3 1006.2 1006.2 -
26/12:30am 27.3 - - - - NNE 4 9 2 5 1006.6 1006.6 -
26/12:00am 27.3 - - - - NE 6 11 3 6 1007.0 1007.0 -
 
Date/Time
EST
Temp
°C
App
Temp
°C
Dew
Point
°C
Rel
Hum
%
Delta-T
°C
Wind Press
QNH
hPa
Press
MSL
hPa
Rain since
9am
mm
Dir  Spd
km/h
Gust
km/h
Spd
kts
Gust
kts
25/11:30pm 27.4 - - - - ENE 7 13 4 7 1007.5 1007.5 -
25/11:00pm 27.6 - - - - ENE 9 17 5 9 1007.7 1007.7 -
25/10:30pm 27.6 - - - - ENE 13 17 7 9 1007.6 1007.6 -
25/10:00pm 27.5 - - - - ENE 19 20 10 11 1007.6 1007.6 -
25/09:30pm 27.6 - - - - ENE 17 20 9 11 1007.1 1007.1 -
25/09:00pm 27.5 - - - - ENE 17 20 9 11 1007.0 1007.0 -
25/08:30pm 27.6 - - - - ENE 17 20 9 11 1006.7 1006.7 -
25/08:00pm 27.5 - - - - ENE 17 20 9 11 1006.4 1006.4 -
25/07:30pm 27.6 - - - - ENE 17 20 9 11 1006.2 1006.2 -
25/07:00pm 27.5 - - - - ENE 19 22 10 12 1006.0 1006.0 -
25/06:30pm 27.5 - - - - ENE 19 20 10 11 1005.7 1005.7 -
25/06:00pm 27.6 - - - - ENE 13 24 7 13 1005.4 1005.4 -
25/05:30pm 27.5 - - - - ENE 17 20 9 11 1005.2 1005.2 -
25/05:00pm 27.4 - - - - ENE 19 22 10 12 1005.0 1005.0 -
25/04:30pm 27.5 - - - - ENE 17 22 9 12 1004.9 1004.9 -

Other formats

Comma delimited format used in spreadsheet applications
http://www.bom.gov.au/fwo/IDQ60801/IDQ60801.94297.axf

JavaScript Object Notation format (JSON) in row-major order
http://www.bom.gov.au/fwo/IDQ60801/IDQ60801.94297.json

Data quality

Most of these data are generated automatically and are frequently updated. Quality checks on data are not normally performed. It is possible for incorrect values to appear. Refer to information at About Latest Weather Observations and please check the disclaimer before using these data.